createdAt,value
2018-11-11T00:00:03.647Z,12.80
2018-11-11T00:02:31.717Z,14.43
2018-11-11T00:04:59.791Z,12.47
2018-11-11T00:07:27.860Z,12.93
2018-11-11T00:09:56.031Z,13.90
2018-11-11T00:12:24.309Z,12.58
2018-11-11T00:14:52.383Z,13.68
2018-11-11T00:17:20.553Z,14.53
2018-11-11T00:19:48.622Z,13.65
2018-11-11T00:22:16.694Z,12.25
2018-11-11T00:24:44.866Z,13.48
2018-11-11T00:27:12.937Z,14.78
2018-11-11T00:29:41.007Z,13.90
2018-11-11T00:32:09.488Z,13.15
2018-11-11T00:34:37.563Z,12.68
2018-11-11T00:37:05.936Z,14.20
2018-11-11T00:39:34.238Z,17.05
2018-11-11T00:42:02.386Z,14.03
2018-11-11T00:44:30.454Z,14.10
2018-11-11T00:46:59.653Z,14.07
2018-11-11T00:49:27.928Z,14.98
2018-11-11T00:51:56.095Z,17.07
2018-11-11T00:54:24.160Z,16.10
2018-11-11T00:56:52.243Z,16.27
2018-11-11T00:59:20.317Z,16.57
2018-11-11T01:01:48.385Z,14.03
2018-11-11T01:04:16.454Z,15.93
2018-11-11T01:06:44.525Z,15.93
2018-11-11T01:09:12.600Z,14.68
2018-11-11T01:11:40.667Z,15.50
2018-11-11T01:14:08.841Z,16.25
2018-11-11T01:16:37.017Z,17.75
2018-11-11T01:19:05.698Z,18.57
2018-11-11T01:21:33.768Z,18.65
2018-11-11T01:24:01.839Z,19.32
2018-11-11T01:26:30.012Z,17.48
2018-11-11T01:28:58.186Z,16.25
2018-11-11T01:31:26.256Z,19.75
2018-11-11T01:33:54.326Z,17.07
2018-11-11T01:36:22.374Z,18.25
2018-11-11T01:38:50.470Z,19.40
2018-11-11T01:41:18.539Z,18.30
2018-11-11T01:43:46.582Z,18.48
2018-11-11T01:46:14.887Z,19.23
2018-11-11T01:48:43.060Z,18.25
2018-11-11T01:51:11.199Z,16.87
2018-11-11T01:53:39.303Z,18.02
2018-11-11T01:56:07.584Z,18.00
2018-11-11T01:58:35.852Z,18.62
2018-11-11T02:01:03.987Z,17.50
2018-11-11T02:03:32.199Z,17.87
2018-11-11T02:06:00.269Z,17.12
2018-11-11T02:08:28.339Z,15.72
2018-11-11T02:10:56.412Z,17.27
2018-11-11T02:13:24.482Z,15.72
2018-11-11T02:15:52.656Z,17.27
2018-11-11T02:18:20.724Z,17.57
2018-11-11T02:20:48.884Z,15.83
2018-11-11T02:23:16.973Z,17.12
2018-11-11T02:25:45.202Z,16.20
2018-11-11T02:28:13.314Z,15.85
2018-11-11T02:30:41.282Z,16.20
2018-11-11T02:33:09.354Z,16.17
2018-11-11T02:35:37.427Z,15.63
2018-11-11T02:38:05.497Z,15.10
2018-11-11T02:40:34.030Z,16.42
2018-11-11T02:43:02.149Z,15.80
2018-11-11T02:45:32.426Z,15.43
2018-11-11T02:48:00.541Z,15.60
2018-11-11T02:50:28.557Z,16.75
2018-11-11T02:52:56.533Z,14.53
2018-11-11T02:55:24.551Z,16.95
2018-11-11T02:57:52.623Z,14.03
2018-11-11T03:00:21.208Z,15.58
2018-11-11T03:02:49.687Z,14.33
2018-11-11T03:05:18.681Z,14.33
2018-11-11T03:07:46.751Z,14.38
2018-11-11T03:10:15.680Z,14.53
2018-11-11T03:12:44.220Z,14.58
2018-11-11T03:15:13.214Z,14.35
2018-11-11T03:17:41.387Z,14.85
2018-11-11T03:20:10.276Z,12.03
2018-11-11T03:22:38.461Z,14.80
2018-11-11T03:25:07.952Z,14.98
2018-11-11T03:27:36.028Z,15.13
2018-11-11T03:30:05.221Z,16.02
2018-11-11T03:32:33.397Z,15.58
2018-11-11T03:35:01.471Z,12.95
2018-11-11T03:37:29.565Z,14.00
2018-11-11T03:39:57.607Z,15.48
2018-11-11T03:42:25.677Z,14.35
2018-11-11T03:44:53.748Z,14.78
2018-11-11T03:47:21.821Z,14.83
2018-11-11T03:49:49.889Z,14.10
2018-11-11T03:52:17.959Z,15.38
2018-11-11T03:54:46.132Z,15.08
2018-11-11T03:57:14.202Z,14.20
2018-11-11T03:59:42.275Z,14.75
2018-11-11T04:02:10.447Z,15.03
2018-11-11T04:04:38.518Z,14.98
2018-11-11T04:07:06.692Z,15.23
2018-11-11T04:09:34.865Z,14.85
2018-11-11T04:12:02.933Z,14.45
2018-11-11T04:14:31.006Z,16.35
2018-11-11T04:16:59.074Z,17.40
2018-11-11T04:19:27.150Z,15.58
2018-11-11T04:21:55.216Z,14.65
2018-11-11T04:24:23.287Z,15.63
2018-11-11T04:26:51.362Z,15.65
2018-11-11T04:29:19.430Z,15.25
2018-11-11T04:31:47.398Z,15.68
2018-11-11T04:34:15.467Z,14.83
2018-11-11T04:36:43.640Z,15.35
2018-11-11T04:39:12.156Z,14.83
2018-11-11T04:41:40.295Z,15.40
2018-11-11T04:44:08.993Z,14.78
2018-11-11T04:46:37.135Z,12.68
2018-11-11T04:49:05.221Z,13.72
2018-11-11T04:51:33.293Z,14.23
2018-11-11T04:54:01.472Z,13.93
2018-11-11T04:56:29.539Z,13.98
2018-11-11T04:58:57.710Z,12.98
2018-11-11T05:01:25.841Z,13.62
2018-11-11T05:03:53.956Z,14.53
2018-11-11T05:06:22.026Z,14.55
2018-11-11T05:08:50.100Z,13.72
2018-11-11T05:11:18.166Z,15.50
2018-11-11T05:13:46.240Z,15.63
2018-11-11T05:16:14.204Z,15.50
2018-11-11T05:18:42.273Z,14.65
2018-11-11T05:21:10.449Z,13.58
2018-11-11T05:23:38.522Z,13.78
2018-11-11T05:26:06.597Z,12.35
2018-11-11T05:28:34.757Z,12.13
2018-11-11T05:31:03.859Z,13.15
2018-11-11T05:33:31.928Z,12.40
2018-11-11T05:36:00.003Z,12.50
2018-11-11T05:38:28.173Z,11.93
2018-11-11T05:40:56.245Z,11.63
2018-11-11T05:43:24.313Z,12.13
2018-11-11T05:45:52.392Z,11.57
2018-11-11T05:48:20.557Z,12.53
2018-11-11T05:50:48.628Z,12.68
2018-11-11T05:53:16.699Z,11.40
2018-11-11T05:55:44.771Z,12.47
2018-11-11T05:58:12.739Z,10.38
2018-11-11T06:00:40.809Z,10.13
2018-11-11T06:03:08.858Z,10.45
2018-11-11T06:05:36.950Z,10.70
2018-11-11T06:08:05.023Z,10.60
2018-11-11T06:10:33.090Z,10.53
2018-11-11T06:13:01.166Z,10.48
2018-11-11T06:15:29.438Z,10.53
2018-11-11T06:17:57.509Z,11.18
2018-11-11T06:20:25.579Z,10.50
2018-11-11T06:22:53.650Z,11.80
2018-11-11T06:25:21.823Z,10.93
2018-11-11T06:27:49.995Z,11.15
2018-11-11T06:30:18.170Z,10.85
2018-11-11T06:32:46.343Z,11.20
2018-11-11T06:35:14.520Z,11.15
2018-11-11T06:37:42.589Z,11.25
2018-11-11T06:40:11.961Z,11.10
2018-11-11T06:42:40.570Z,10.63
2018-11-11T06:45:10.895Z,11.20
2018-11-11T06:47:39.168Z,10.40
2018-11-11T06:50:08.366Z,10.05
2018-11-11T06:52:36.643Z,11.40
2018-11-11T06:55:04.815Z,11.12
2018-11-11T06:57:32.886Z,12.40
2018-11-11T07:00:01.065Z,10.98
2018-11-11T07:02:36.292Z,11.60
2018-11-11T07:05:05.394Z,10.85
2018-11-11T07:07:33.536Z,10.13
2018-11-11T07:10:02.968Z,9.95
2018-11-11T07:12:31.140Z,11.30
2018-11-11T07:14:59.213Z,8.93
2018-11-11T07:17:27.282Z,10.53
2018-11-11T07:19:55.456Z,8.18
2018-11-11T07:22:23.525Z,9.08
2018-11-11T07:24:51.595Z,9.08
2018-11-11T07:27:19.667Z,8.03
2018-11-11T07:29:47.841Z,9.35
2018-11-11T07:32:16.115Z,8.78
2018-11-11T07:34:44.187Z,8.48
2018-11-11T07:37:12.257Z,8.23
2018-11-11T07:39:40.326Z,9.20
2018-11-11T07:42:08.465Z,7.78
2018-11-11T07:44:36.675Z,7.72
2018-11-11T07:47:04.847Z,7.47
2018-11-11T07:49:35.170Z,8.53
2018-11-11T07:52:03.483Z,8.80
2018-11-11T07:54:31.567Z,8.23
2018-11-11T07:56:59.792Z,8.03
2018-11-11T07:59:28.886Z,8.83
2018-11-11T08:01:57.003Z,8.80
2018-11-11T08:04:25.233Z,8.68
2018-11-11T08:06:53.304Z,7.83
2018-11-11T08:09:31.718Z,9.38
2018-11-11T08:12:01.328Z,8.23
2018-11-11T08:14:29.634Z,10.60
2018-11-11T08:16:58.182Z,7.47
2018-11-11T08:19:26.255Z,7.58
2018-11-11T08:21:54.425Z,8.10
2018-11-11T08:24:22.507Z,6.65
2018-11-11T08:26:57.636Z,7.83
2018-11-11T08:29:25.803Z,7.20
2018-11-11T08:31:53.876Z,7.55
2018-11-11T08:34:21.947Z,7.28
2018-11-11T08:36:56.160Z,6.80
2018-11-11T08:39:24.231Z,8.00
2018-11-11T08:41:52.325Z,6.58
2018-11-11T08:44:20.374Z,7.42
2018-11-11T08:47:05.034Z,7.53
2018-11-11T08:49:33.105Z,7.92
2018-11-11T08:52:01.380Z,7.12
2018-11-11T08:54:32.932Z,7.83
2018-11-11T08:57:01.001Z,6.35
2018-11-11T08:59:29.281Z,7.45
2018-11-11T09:01:57.554Z,6.65
2018-11-11T09:04:26.834Z,7.10
2018-11-11T09:06:54.765Z,6.75
2018-11-11T09:09:22.687Z,5.67
2018-11-11T09:11:50.968Z,5.05
2018-11-11T09:14:18.935Z,5.85
2018-11-11T09:16:46.911Z,5.20
2018-11-11T09:19:15.221Z,6.30
2018-11-11T09:21:43.197Z,6.50
2018-11-11T09:24:14.800Z,7.50
2018-11-11T09:26:43.447Z,7.75
2018-11-11T09:29:11.459Z,7.33
2018-11-11T09:31:43.127Z,8.00
2018-11-11T09:34:11.140Z,7.45
2018-11-11T09:36:39.134Z,8.95
2018-11-11T09:39:11.821Z,8.65
2018-11-11T09:41:39.798Z,6.65
2018-11-11T09:44:07.777Z,7.40
2018-11-11T09:46:35.730Z,7.60
2018-11-11T09:49:10.046Z,11.53
2018-11-11T09:51:38.217Z,14.07
2018-11-11T09:54:06.754Z,15.32
2018-11-11T09:56:34.977Z,8.98
2018-11-11T09:59:10.316Z,8.43
2018-11-11T10:01:38.487Z,7.70
2018-11-11T10:04:27.488Z,7.15
2018-11-11T10:07:05.061Z,6.92
2018-11-11T10:11:41.157Z,6.80
2018-11-11T10:14:14.250Z,6.95
2018-11-11T10:16:47.317Z,8.40
2018-11-11T10:19:24.947Z,7.83
2018-11-11T10:22:12.039Z,6.60
2018-11-11T10:24:45.369Z,6.90
2018-11-11T10:27:18.278Z,7.72
2018-11-11T10:29:53.049Z,7.28
2018-11-11T10:32:38.513Z,12.05
2018-11-11T10:35:18.333Z,16.30
2018-11-11T10:37:51.312Z,13.85
2018-11-11T10:40:37.520Z,11.35
2018-11-11T10:44:11.855Z,17.12
2018-11-11T10:46:45.193Z,13.05
2018-11-11T10:49:15.864Z,10.35
2018-11-11T10:51:43.947Z,10.03
2018-11-11T10:54:12.119Z,10.25
2018-11-11T10:56:41.187Z,8.18
2018-11-11T10:59:09.194Z,10.70
2018-11-11T11:01:42.903Z,13.53
2018-11-11T11:04:10.881Z,10.95
2018-11-11T11:06:44.471Z,10.15
2018-11-11T11:09:13.793Z,9.68
2018-11-11T11:11:42.885Z,7.55
2018-11-11T11:14:11.832Z,6.72
2018-11-11T11:16:41.437Z,6.33
2018-11-11T11:19:09.914Z,5.92
2018-11-11T11:21:38.293Z,5.47
2018-11-11T11:24:06.466Z,4.62
2018-11-11T11:26:34.534Z,4.70
2018-11-11T11:29:02.609Z,5.63
2018-11-11T11:31:30.877Z,4.30
2018-11-11T11:33:59.265Z,4.42
2018-11-11T11:36:27.537Z,4.85
2018-11-11T11:38:55.812Z,4.43
2018-11-11T11:41:23.915Z,3.87
2018-11-11T11:43:52.083Z,3.85
2018-11-11T11:46:20.439Z,6.80
2018-11-11T11:48:48.504Z,4.43
2018-11-11T11:51:16.573Z,4.20
2018-11-11T11:53:44.748Z,14.77
2018-11-11T11:56:12.923Z,19.10
2018-11-11T11:58:40.992Z,6.70
2018-11-11T12:01:09.163Z,3.87
2018-11-11T12:03:37.239Z,4.87
2018-11-11T12:06:05.511Z,4.53
2018-11-11T12:08:33.847Z,4.23
2018-11-11T12:11:02.067Z,4.07
2018-11-11T12:13:30.132Z,3.80
2018-11-11T12:15:58.202Z,4.53
2018-11-11T12:18:26.377Z,3.40
2018-11-11T12:20:54.449Z,4.00
2018-11-11T12:23:23.267Z,3.90
2018-11-11T12:25:51.410Z,4.30
2018-11-11T12:28:19.684Z,10.00
2018-11-11T12:30:49.670Z,4.77
2018-11-11T12:33:17.815Z,4.07
2018-11-11T12:35:46.048Z,3.90
2018-11-11T12:38:14.228Z,4.47
2018-11-11T12:40:42.493Z,3.80
2018-11-11T12:43:10.585Z,5.83
2018-11-11T12:45:39.351Z,8.50
2018-11-11T12:48:07.424Z,6.00
2018-11-11T12:50:35.491Z,4.63
2018-11-11T12:53:03.666Z,4.10
2018-11-11T12:55:31.903Z,3.70
2018-11-11T12:58:00.116Z,2.93
2018-11-11T13:00:28.289Z,3.17
2018-11-11T13:02:56.974Z,3.67
2018-11-11T13:05:25.251Z,3.50
2018-11-11T13:07:53.576Z,3.37
2018-11-11T13:10:21.809Z,3.50
2018-11-11T13:12:49.975Z,2.60
2018-11-11T13:15:18.147Z,2.53
2018-11-11T13:17:46.215Z,3.40
2018-11-11T13:20:16.643Z,3.77
2018-11-11T13:22:44.915Z,2.80
2018-11-11T13:25:14.219Z,3.30
2018-11-11T13:27:43.521Z,3.37
2018-11-11T13:30:13.126Z,2.90
2018-11-11T13:32:41.216Z,2.97
2018-11-11T13:35:12.442Z,2.80
2018-11-11T13:37:40.986Z,2.70
2018-11-11T13:40:19.948Z,4.15
2018-11-11T13:42:48.127Z,3.40
2018-11-11T13:45:18.955Z,3.52
2018-11-11T13:47:47.743Z,2.90
2018-11-11T13:50:23.993Z,2.80
2018-11-11T13:52:53.409Z,4.03
2018-11-11T13:55:22.097Z,4.60
2018-11-11T13:57:51.087Z,3.45
2018-11-11T14:00:21.307Z,3.30
2018-11-11T14:02:49.788Z,2.83
2018-11-11T14:05:17.960Z,2.77
2018-11-11T14:07:46.337Z,2.67
2018-11-11T14:10:14.920Z,2.97
2018-11-11T14:12:43.094Z,3.45
2018-11-11T14:15:20.484Z,4.10
2018-11-11T14:17:48.916Z,2.87
2018-11-11T14:20:18.672Z,2.90
2018-11-11T14:22:47.768Z,3.10
2018-11-11T14:25:19.523Z,3.15
2018-11-11T14:27:47.800Z,5.53
2018-11-11T14:30:20.070Z,3.87
2018-11-11T14:32:49.087Z,4.07
2018-11-11T14:35:17.131Z,4.70
2018-11-11T14:37:45.643Z,4.35
2018-11-11T14:40:17.062Z,5.05
2018-11-11T14:42:45.853Z,3.92
2018-11-11T14:45:14.840Z,4.67
2018-11-11T14:47:43.766Z,4.15
2018-11-11T14:50:13.387Z,4.70
2018-11-11T14:52:42.156Z,5.35
2018-11-11T14:55:13.415Z,5.72
2018-11-11T14:57:41.749Z,4.90
2018-11-11T15:00:14.633Z,6.67
2018-11-11T15:02:43.425Z,5.08
2018-11-11T15:05:13.440Z,5.45
2018-11-11T15:07:42.944Z,6.50
2018-11-11T15:10:12.445Z,7.58
2018-11-11T15:12:41.027Z,6.78
2018-11-11T15:15:13.808Z,6.53
2018-11-11T15:17:42.396Z,8.60
2018-11-11T15:20:11.917Z,9.65
2018-11-11T15:22:40.171Z,8.43
2018-11-11T15:25:11.124Z,6.72
2018-11-11T15:27:39.795Z,7.15
2018-11-11T15:30:11.039Z,19.73
2018-11-11T15:32:40.133Z,6.80
2018-11-11T15:35:08.820Z,6.58
2018-11-11T15:37:37.402Z,5.87
2018-11-11T15:40:07.828Z,6.12
2018-11-11T15:42:36.933Z,7.42
2018-11-11T15:45:07.451Z,13.90
2018-11-11T15:47:35.624Z,8.70
2018-11-11T15:50:05.743Z,15.43
2018-11-11T15:52:34.019Z,13.80
2018-11-11T15:55:02.193Z,19.92
2018-11-11T15:57:30.263Z,16.87
2018-11-11T15:59:58.439Z,31.50
2018-11-11T16:02:26.505Z,29.98
2018-11-11T16:04:54.886Z,36.15
2018-11-11T16:07:23.468Z,16.23
2018-11-11T16:09:51.639Z,15.78
2018-11-11T16:12:20.736Z,18.65
2018-11-11T16:14:50.238Z,17.15
2018-11-11T16:17:18.926Z,16.10
2018-11-11T16:19:49.071Z,9.30
2018-11-11T16:22:19.366Z,12.78
2018-11-11T16:24:48.460Z,10.55
2018-11-11T16:27:17.248Z,9.15
2018-11-11T16:29:46.553Z,7.10
2018-11-11T16:32:15.159Z,7.87
2018-11-11T16:34:43.611Z,7.50
2018-11-11T16:37:11.610Z,6.80
2018-11-11T16:39:39.812Z,6.05
2018-11-11T16:42:08.130Z,6.30
2018-11-11T16:44:36.408Z,5.17
2018-11-11T16:47:04.583Z,5.47
2018-11-11T16:49:32.856Z,5.60
2018-11-11T16:52:01.134Z,5.75
2018-11-11T16:54:29.358Z,6.83
2018-11-11T16:56:57.583Z,6.70
2018-11-11T16:59:25.749Z,7.90
2018-11-11T17:01:53.924Z,7.55
2018-11-11T17:04:22.107Z,7.53
2018-11-11T17:06:50.936Z,10.63
2018-11-11T17:09:19.161Z,8.43
2018-11-11T17:11:47.338Z,9.38
2018-11-11T17:14:15.687Z,9.10
2018-11-11T17:16:43.781Z,6.20
2018-11-11T17:19:12.102Z,6.03
2018-11-11T17:21:40.401Z,7.05
2018-11-11T17:24:08.608Z,6.70
2018-11-11T17:26:37.907Z,8.80
2018-11-11T17:29:06.212Z,13.32
2018-11-11T17:31:34.563Z,18.52
2018-11-11T17:34:02.735Z,13.50
2018-11-11T17:36:30.911Z,9.43
2018-11-11T17:38:59.239Z,8.85
2018-11-11T17:41:28.075Z,10.05
2018-11-11T17:43:56.247Z,8.80
2018-11-11T17:46:24.727Z,9.45
2018-11-11T17:48:52.812Z,10.45
2018-11-11T17:51:20.970Z,9.08
2018-11-11T17:53:49.144Z,8.20
2018-11-11T17:56:24.074Z,13.35
2018-11-11T17:58:53.274Z,9.60
2018-11-11T18:01:21.648Z,13.13
2018-11-11T18:03:49.821Z,12.23
2018-11-11T18:06:18.304Z,14.13
2018-11-11T18:08:47.810Z,13.93
2018-11-11T18:11:16.186Z,14.35
2018-11-11T18:13:44.670Z,12.98
2018-11-11T18:16:14.584Z,16.97
2018-11-11T18:18:42.753Z,14.60
2018-11-11T18:21:11.136Z,14.65
2018-11-11T18:23:39.918Z,24.05
2018-11-11T18:26:08.095Z,22.52
2018-11-11T18:28:36.409Z,25.10
2018-11-11T18:31:04.953Z,19.00
2018-11-11T18:33:33.839Z,13.60
2018-11-11T18:36:02.025Z,21.15
2018-11-11T18:38:30.390Z,17.85
2018-11-11T18:40:58.580Z,25.75
2018-11-11T18:43:28.375Z,21.35
2018-11-11T18:45:56.752Z,14.38
2018-11-11T18:48:24.823Z,16.70
2018-11-11T18:50:53.724Z,24.87
2018-11-11T18:53:21.994Z,21.30
2018-11-11T18:55:50.163Z,21.27
2018-11-11T18:58:18.542Z,29.45
2018-11-11T19:00:47.535Z,11.97
2018-11-11T19:03:15.913Z,19.98
2018-11-11T19:05:47.160Z,23.00
2018-11-11T19:08:16.149Z,11.40
2018-11-11T19:10:45.281Z,12.65
2018-11-11T19:13:13.538Z,13.40
2018-11-11T19:15:41.698Z,11.20
2018-11-11T19:18:09.970Z,13.20
2018-11-11T19:20:38.011Z,12.33
2018-11-11T19:23:06.209Z,12.73
2018-11-11T19:25:34.385Z,11.05
2018-11-11T19:28:02.973Z,11.63
2018-11-11T19:30:32.003Z,11.03
2018-11-11T19:33:00.236Z,8.80
2018-11-11T19:35:28.408Z,14.70
2018-11-11T19:37:57.298Z,17.95
2018-11-11T19:40:26.596Z,14.78
2018-11-11T19:42:56.821Z,10.53
2018-11-11T19:45:26.525Z,15.08
2018-11-11T19:47:54.904Z,16.37
2018-11-11T19:50:24.001Z,12.55
2018-11-11T19:52:53.196Z,18.15
2018-11-11T19:55:22.499Z,26.05
2018-11-11T19:57:50.657Z,14.40
2018-11-11T20:00:21.208Z,10.32
2018-11-11T20:02:50.193Z,9.88
2018-11-11T20:05:19.084Z,11.28
2018-11-11T20:07:48.111Z,8.68
2018-11-11T20:10:17.474Z,10.82
2018-11-11T20:12:45.750Z,7.92
2018-11-11T20:15:17.099Z,8.65
2018-11-11T20:17:45.890Z,7.30
2018-11-11T20:20:15.698Z,7.53
2018-11-11T20:22:44.178Z,7.28
2018-11-11T20:25:13.376Z,7.83
2018-11-11T20:27:42.161Z,7.45
2018-11-11T20:30:15.559Z,8.80
2018-11-11T20:32:44.348Z,7.78
2018-11-11T20:35:14.223Z,7.72
2018-11-11T20:37:42.437Z,6.87
2018-11-11T20:40:12.246Z,6.72
2018-11-11T20:42:41.082Z,8.13
2018-11-11T20:45:10.639Z,6.70
2018-11-11T20:47:39.834Z,7.25
2018-11-11T20:50:11.899Z,6.92
2018-11-11T20:52:41.511Z,7.55
2018-11-11T20:55:10.702Z,7.47
2018-11-11T20:57:39.593Z,6.85
2018-11-11T21:00:10.324Z,7.83
2018-11-11T21:02:38.570Z,7.20
2018-11-11T21:05:10.222Z,6.92
2018-11-11T21:07:40.714Z,6.15
2018-11-11T21:10:12.030Z,5.95
2018-11-11T21:12:40.410Z,6.25
2018-11-11T21:15:10.940Z,6.85
2018-11-11T21:17:39.216Z,6.12
2018-11-11T21:20:10.561Z,5.37
2018-11-11T21:22:39.822Z,5.17
2018-11-11T21:25:08.860Z,5.40
2018-11-11T21:27:38.152Z,5.40
2018-11-11T21:30:09.295Z,4.40
2018-11-11T21:32:37.648Z,4.80
2018-11-11T21:35:05.956Z,4.37
2018-11-11T21:37:34.220Z,4.62
2018-11-11T21:40:02.499Z,5.33
2018-11-11T21:42:31.086Z,4.58
2018-11-11T21:44:59.311Z,5.33
2018-11-11T21:47:27.528Z,5.47
2018-11-11T21:49:55.650Z,5.30
2018-11-11T21:52:23.770Z,6.62
2018-11-11T21:54:52.048Z,5.55
2018-11-11T21:57:20.395Z,7.80
2018-11-11T21:59:48.606Z,5.67
2018-11-11T22:02:16.702Z,5.60
2018-11-11T22:04:44.852Z,6.60
2018-11-11T22:07:14.039Z,7.17
2018-11-11T22:09:42.217Z,7.70
2018-11-11T22:12:10.283Z,7.40
2018-11-11T22:14:38.400Z,5.65
2018-11-11T22:17:06.699Z,5.72
2018-11-11T22:19:34.803Z,5.83
2018-11-11T22:22:03.087Z,5.90
2018-11-11T22:24:31.150Z,6.10
2018-11-11T22:26:59.219Z,6.58
2018-11-11T22:29:27.327Z,6.75
2018-11-11T22:31:55.462Z,5.90
2018-11-11T22:34:23.536Z,5.17
2018-11-11T22:36:51.706Z,6.20
2018-11-11T22:39:19.780Z,6.22
2018-11-11T22:41:47.950Z,7.95
2018-11-11T22:44:16.022Z,6.00
2018-11-11T22:46:44.097Z,6.03
2018-11-11T22:49:12.238Z,6.70
2018-11-11T22:51:40.341Z,6.67
2018-11-11T22:54:08.442Z,6.65
2018-11-11T22:56:36.480Z,8.03
2018-11-11T22:59:04.754Z,7.33
2018-11-11T23:01:32.824Z,7.05
2018-11-11T23:04:00.893Z,7.95
2018-11-11T23:06:29.067Z,8.55
2018-11-11T23:08:57.145Z,8.13
2018-11-11T23:11:25.320Z,7.90
2018-11-11T23:13:53.483Z,9.45
2018-11-11T23:16:21.555Z,8.80
2018-11-11T23:18:49.729Z,8.33
2018-11-11T23:21:17.799Z,8.85
2018-11-11T23:23:45.971Z,8.98
2018-11-11T23:26:14.063Z,9.05
2018-11-11T23:28:42.114Z,8.45
2018-11-11T23:31:10.184Z,8.65
2018-11-11T23:33:38.254Z,7.62
2018-11-11T23:36:06.328Z,8.55
2018-11-11T23:38:34.498Z,6.97
2018-11-11T23:41:02.572Z,8.03
2018-11-11T23:43:30.638Z,7.75
2018-11-11T23:45:58.710Z,6.85
2018-11-11T23:48:26.791Z,6.45
2018-11-11T23:50:54.955Z,7.22
2018-11-11T23:53:23.026Z,6.75
2018-11-11T23:55:51.095Z,6.30
2018-11-11T23:58:19.173Z,6.20
